Portada
METAR-TAF:

METAR-TAF

Aeroports :

Winnsboro, Carolina del Sud, Estats Units d'Amèrica

latitud: 34-18-56N, longitud: 081-06-32W, altitud: 176 m

Observació

L'informe es va fer fa 27 minuts, a les 03:15 UTC
Vent 5 kt del Nord-Est
Temperatura 8°C
Humitat 81%
Pressió 1013 hPa
Visibilitat: 16.1 km
Cel clar

METAR: KFDW 180315Z AUTO 04005KT 10SM CLR 08/05 A2992 RMK AO1

Hora: 22:42 (03:42 UTC)


TAF: manca

Observacions i pronòstics meteorològics de més de 4000 aeroports (METAR i TAF).

Les estacions disponibles són els punts grocs i vermells al mapa.

Posi el ratolí al punt desitjat per veure el nom de l'estació.

Feu clic per veure les observacions i els pronòstics meteorològics.

Per canviar el mapa: feu clic els botons verds amb una creu de color negre per apropar; al botó verd amb un guió per allunyar la imatge; o en les fletxes verdes per a mapes adjacents.


METAR-TAF: